createdAt,value
2019-04-05T00:00:02.633Z,0.00
2019-04-05T00:01:02.665Z,0.00
2019-04-05T00:02:02.617Z,0.00
2019-04-05T00:03:02.605Z,0.00
2019-04-05T00:04:02.594Z,0.00
2019-04-05T00:05:02.576Z,0.00
2019-04-05T00:06:02.569Z,0.00
2019-04-05T00:07:02.567Z,0.00
2019-04-05T00:08:02.547Z,0.00
2019-04-05T00:09:02.536Z,0.00
2019-04-05T00:10:02.523Z,0.00
2019-04-05T00:11:02.513Z,0.00
2019-04-05T00:12:02.516Z,0.00
2019-04-05T00:13:02.490Z,0.00
2019-04-05T00:14:02.487Z,0.00
2019-04-05T00:15:14.590Z,0.00
2019-04-05T00:16:03.464Z,0.00
2019-04-05T00:17:02.486Z,0.00
2019-04-05T00:18:02.438Z,0.00
2019-04-05T00:19:02.430Z,0.00
2019-04-05T00:20:02.415Z,0.00
2019-04-05T00:21:13.240Z,0.00
2019-04-05T00:22:02.395Z,0.00
2019-04-05T00:23:02.401Z,0.00
2019-04-05T00:24:02.370Z,0.00
2019-04-05T00:25:02.366Z,0.00
2019-04-05T00:26:02.350Z,0.00
2019-04-05T00:27:02.345Z,0.00
2019-04-05T00:28:02.328Z,0.00
2019-04-05T00:29:02.325Z,0.00
2019-04-05T00:30:02.312Z,0.00
2019-04-05T00:31:02.303Z,0.00
2019-04-05T00:32:02.288Z,0.00
2019-04-05T00:33:02.278Z,0.00
2019-04-05T00:34:02.278Z,0.00
2019-04-05T00:35:02.297Z,0.00
2019-04-05T00:36:02.241Z,0.00
2019-04-05T00:37:02.235Z,0.00
2019-04-05T00:38:02.224Z,0.00
2019-04-05T00:39:02.210Z,0.00
2019-04-05T00:40:02.204Z,0.00
2019-04-05T00:41:02.205Z,0.00
2019-04-05T00:42:02.177Z,0.00
2019-04-05T00:43:02.167Z,0.00
2019-04-05T00:44:02.163Z,0.00
2019-04-05T00:45:02.144Z,0.00
2019-04-05T00:46:02.150Z,0.00
2019-04-05T00:47:02.124Z,0.00
2019-04-05T00:48:02.118Z,0.00
2019-04-05T00:49:02.099Z,0.00
2019-04-05T00:50:02.140Z,0.00
2019-04-05T00:51:02.085Z,0.00
2019-04-05T00:52:13.703Z,0.00
2019-04-05T00:53:02.058Z,0.00
2019-04-05T00:54:02.051Z,0.00
2019-04-05T00:55:02.040Z,0.00
2019-04-05T00:56:02.024Z,0.00
2019-04-05T00:57:02.018Z,0.00
2019-04-05T00:58:02.028Z,0.00
2019-04-05T00:59:01.994Z,0.00
2019-04-05T01:00:01.987Z,0.00
2019-04-05T01:01:01.969Z,0.00
2019-04-05T01:02:01.961Z,0.00
2019-04-05T01:03:01.948Z,0.00
2019-04-05T01:04:01.994Z,0.00
2019-04-05T01:05:01.931Z,0.00
2019-04-05T01:06:01.921Z,0.00
2019-04-05T01:07:01.904Z,0.00
2019-04-05T01:08:01.896Z,0.00
2019-04-05T01:09:01.886Z,0.00
2019-04-05T01:10:01.880Z,0.00
2019-04-05T01:11:01.868Z,0.00
2019-04-05T01:12:01.852Z,0.00
2019-04-05T01:13:01.838Z,0.00
2019-04-05T01:14:01.826Z,0.00
2019-04-05T01:15:01.831Z,0.00
2019-04-05T01:16:01.818Z,0.00
2019-04-05T01:17:01.792Z,0.00
2019-04-05T01:18:01.785Z,0.00
2019-04-05T01:19:04.041Z,0.00
2019-04-05T01:20:01.764Z,0.00
2019-04-05T01:21:01.764Z,0.00
2019-04-05T01:22:01.745Z,0.00
2019-04-05T01:23:12.229Z,0.00
2019-04-05T01:24:01.717Z,0.00
2019-04-05T01:25:01.718Z,0.00
2019-04-05T01:26:01.695Z,0.00
2019-04-05T01:27:01.721Z,0.00
2019-04-05T01:28:01.677Z,0.00
2019-04-05T01:29:01.667Z,0.00
2019-04-05T01:30:01.650Z,0.00
2019-04-05T01:31:01.638Z,0.00
2019-04-05T01:32:01.632Z,0.00
2019-04-05T01:33:01.627Z,0.00
2019-04-05T01:34:01.608Z,0.00
2019-04-05T01:35:01.775Z,0.00
2019-04-05T01:36:01.584Z,0.00
2019-04-05T01:37:01.572Z,0.00
2019-04-05T01:38:01.601Z,0.00
2019-04-05T01:39:01.555Z,0.00
2019-04-05T01:40:01.547Z,0.00
2019-04-05T01:41:01.539Z,0.00
2019-04-05T01:42:01.518Z,0.00
2019-04-05T01:43:01.510Z,0.00
2019-04-05T01:44:01.534Z,0.00
2019-04-05T01:45:01.482Z,0.00
2019-04-05T01:46:01.476Z,0.00
2019-04-05T01:47:01.464Z,0.00
2019-04-05T01:48:01.454Z,0.00
2019-04-05T01:49:01.445Z,0.00
2019-04-05T01:50:01.446Z,0.00
2019-04-05T01:51:01.426Z,0.00
2019-04-05T01:52:01.412Z,0.00
2019-04-05T01:53:01.453Z,0.00
2019-04-05T01:54:12.811Z,0.00
2019-04-05T01:55:01.380Z,0.00
2019-04-05T01:56:01.373Z,0.00
2019-04-05T01:57:01.355Z,0.00
2019-04-05T01:58:01.344Z,0.00
2019-04-05T01:59:01.342Z,0.00
2019-04-05T02:00:01.320Z,0.00
2019-04-05T02:01:01.328Z,0.00
2019-04-05T02:02:01.300Z,0.00
2019-04-05T02:03:01.288Z,0.00
2019-04-05T02:04:01.281Z,0.00
2019-04-05T02:05:01.266Z,0.00
2019-04-05T02:06:01.265Z,0.00
2019-04-05T02:07:01.250Z,0.00
2019-04-05T02:08:01.239Z,0.00
2019-04-05T02:09:01.222Z,0.00
2019-04-05T02:10:01.215Z,0.00
2019-04-05T02:11:01.199Z,0.00
2019-04-05T02:12:01.196Z,0.00
2019-04-05T02:13:01.184Z,0.00
2019-04-05T02:14:01.175Z,0.00
2019-04-05T02:15:01.156Z,0.00
2019-04-05T02:16:06.477Z,0.00
2019-04-05T02:17:02.149Z,0.00
2019-04-05T02:18:01.129Z,0.00
2019-04-05T02:19:01.117Z,0.00
2019-04-05T02:20:01.105Z,0.00
2019-04-05T02:21:01.098Z,0.00
2019-04-05T02:22:01.095Z,0.00
2019-04-05T02:23:01.079Z,0.00
2019-04-05T02:24:01.065Z,0.00
2019-04-05T02:25:11.356Z,0.00
2019-04-05T02:26:01.041Z,0.00
2019-04-05T02:27:01.032Z,0.00
2019-04-05T02:28:01.013Z,0.00
2019-04-05T02:29:01.006Z,0.00
2019-04-05T02:30:01.001Z,0.00
2019-04-05T02:31:00.991Z,0.00
2019-04-05T02:32:00.972Z,0.00
2019-04-05T02:33:00.963Z,0.00
2019-04-05T02:34:00.957Z,0.00
2019-04-05T02:35:00.946Z,0.00
2019-04-05T02:36:00.942Z,0.00
2019-04-05T02:37:00.915Z,0.00
2019-04-05T02:38:00.944Z,0.00
2019-04-05T02:39:00.895Z,0.00
2019-04-05T02:40:00.923Z,0.00
2019-04-05T02:41:00.881Z,0.00
2019-04-05T02:42:00.863Z,0.00
2019-04-05T02:43:00.853Z,0.00
2019-04-05T02:44:00.842Z,0.00
2019-04-05T02:45:00.838Z,0.00
2019-04-05T02:46:00.832Z,0.00
2019-04-05T02:47:00.805Z,0.00
2019-04-05T02:48:00.799Z,0.00
2019-04-05T02:49:00.786Z,0.00
2019-04-05T02:50:00.777Z,0.00
2019-04-05T02:51:00.806Z,0.00
2019-04-05T02:52:00.758Z,0.00
2019-04-05T02:53:00.751Z,0.00
2019-04-05T02:54:00.737Z,0.00
2019-04-05T02:55:00.724Z,0.00
2019-04-05T02:56:12.895Z,156.00
2019-04-05T02:57:00.698Z,188.00
2019-04-05T02:58:00.687Z,196.00
2019-04-05T02:59:00.687Z,196.00
2019-04-05T03:00:00.667Z,196.00
2019-04-05T03:01:00.664Z,196.00
2019-04-05T03:02:00.686Z,200.00
2019-04-05T03:03:00.643Z,196.00
2019-04-05T03:04:00.634Z,196.00
2019-04-05T03:05:00.620Z,196.00
2019-04-05T03:06:00.601Z,196.00
2019-04-05T03:07:00.594Z,196.00
2019-04-05T03:08:00.633Z,192.00
2019-04-05T03:09:00.569Z,192.00
2019-04-05T03:10:00.577Z,192.00
2019-04-05T03:11:00.546Z,196.00
2019-04-05T03:12:00.551Z,192.00
2019-04-05T03:13:00.549Z,188.00
2019-04-05T03:14:00.522Z,188.00
2019-04-05T03:15:00.500Z,180.00
2019-04-05T03:16:00.495Z,188.00
2019-04-05T03:17:00.503Z,188.00
2019-04-05T03:18:00.470Z,0.00
2019-04-05T03:19:00.501Z,0.00
2019-04-05T03:20:00.450Z,0.00
2019-04-05T03:21:00.453Z,0.00
2019-04-05T03:22:00.422Z,0.00
2019-04-05T03:23:00.421Z,4.00
2019-04-05T03:24:00.408Z,0.00
2019-04-05T03:25:00.408Z,0.00
2019-04-05T03:26:00.377Z,0.00
2019-04-05T03:27:11.849Z,0.00
2019-04-05T03:28:00.363Z,0.00
2019-04-05T03:29:00.400Z,0.00
2019-04-05T03:30:00.345Z,4.00
2019-04-05T03:31:00.341Z,4.00
2019-04-05T03:32:00.318Z,4.00
2019-04-05T03:33:00.310Z,4.00
2019-04-05T03:34:00.304Z,4.00
2019-04-05T03:35:00.300Z,0.00
2019-04-05T03:36:00.277Z,0.00
2019-04-05T03:37:00.341Z,0.00
2019-04-05T03:38:00.249Z,0.00
2019-04-05T03:39:00.244Z,0.00
2019-04-05T03:40:00.229Z,0.00
2019-04-05T03:41:00.239Z,4.00
2019-04-05T03:42:00.214Z,4.00
2019-04-05T03:43:00.212Z,4.00
2019-04-05T03:44:00.189Z,4.00
2019-04-05T03:45:00.178Z,4.00
2019-04-05T03:46:00.163Z,4.00
2019-04-05T03:47:00.159Z,4.00
2019-04-05T03:48:00.155Z,4.00
2019-04-05T03:49:00.134Z,0.00
2019-04-05T03:50:00.134Z,4.00
2019-04-05T03:51:00.112Z,4.00
2019-04-05T03:52:00.186Z,4.00
2019-04-05T03:53:00.102Z,4.00
2019-04-05T03:54:00.082Z,4.00
2019-04-05T03:55:00.066Z,4.00
2019-04-05T03:56:00.056Z,4.00
2019-04-05T03:57:00.040Z,4.00
2019-04-05T03:58:10.473Z,8.00
2019-04-05T03:59:00.017Z,8.00
2019-04-05T04:00:00.009Z,8.00
2019-04-05T04:00:59.998Z,4.00
2019-04-05T04:01:59.990Z,4.00
2019-04-05T04:02:59.976Z,4.00
2019-04-05T04:03:59.971Z,4.00
2019-04-05T04:04:59.958Z,4.00
2019-04-05T04:05:59.940Z,4.00
2019-04-05T04:06:59.934Z,8.00
2019-04-05T04:07:59.940Z,8.00
2019-04-05T04:08:59.944Z,8.00
2019-04-05T04:09:59.908Z,8.00
2019-04-05T04:10:59.893Z,8.00
2019-04-05T04:11:59.882Z,8.00
2019-04-05T04:12:59.871Z,8.00
2019-04-05T04:13:59.861Z,8.00
2019-04-05T04:14:59.857Z,8.00
2019-04-05T04:15:59.835Z,8.00
2019-04-05T04:17:11.970Z,8.00
2019-04-05T04:18:00.810Z,8.00
2019-04-05T04:18:59.801Z,8.00
2019-04-05T04:19:59.828Z,8.00
2019-04-05T04:20:59.780Z,12.00
2019-04-05T04:21:59.771Z,12.00
2019-04-05T04:22:59.762Z,12.00
2019-04-05T04:23:59.747Z,12.00
2019-04-05T04:24:59.792Z,8.00
2019-04-05T04:25:59.763Z,8.00
2019-04-05T04:26:59.713Z,8.00
2019-04-05T04:27:59.710Z,8.00
2019-04-05T04:29:09.847Z,12.00
2019-04-05T04:30:00.463Z,12.00
2019-04-05T04:30:59.677Z,12.00
2019-04-05T04:31:59.672Z,12.00
2019-04-05T04:32:59.653Z,12.00
2019-04-05T04:33:59.645Z,12.00
2019-04-05T04:34:59.628Z,12.00
2019-04-05T04:35:59.627Z,12.00
2019-04-05T04:36:59.641Z,12.00
2019-04-05T04:37:59.595Z,12.00
2019-04-05T04:38:59.588Z,12.00
2019-04-05T04:39:59.578Z,12.00
2019-04-05T04:40:59.561Z,12.00
2019-04-05T04:41:59.555Z,12.00
2019-04-05T04:42:59.574Z,12.00
2019-04-05T04:43:59.582Z,16.00
2019-04-05T04:45:11.226Z,16.00
2019-04-05T04:46:00.504Z,16.00
2019-04-05T04:46:59.496Z,12.00
2019-04-05T04:47:59.492Z,16.00
2019-04-05T04:48:59.488Z,16.00
2019-04-05T04:49:59.476Z,16.00
2019-04-05T04:50:59.453Z,16.00
2019-04-05T04:51:59.439Z,16.00
2019-04-05T04:52:59.434Z,16.00
2019-04-05T04:53:59.430Z,112.00
2019-04-05T04:54:59.418Z,176.00
2019-04-05T04:55:59.399Z,208.00
2019-04-05T04:56:59.385Z,212.00
2019-04-05T04:57:59.379Z,216.00
2019-04-05T04:58:59.366Z,216.00
2019-04-05T05:00:11.562Z,216.00
2019-04-05T05:00:59.351Z,216.00
2019-04-05T05:01:59.336Z,216.00
2019-04-05T05:02:59.326Z,216.00
2019-04-05T05:03:59.313Z,216.00
2019-04-05T05:04:59.302Z,216.00
2019-04-05T05:05:59.327Z,216.00
2019-04-05T05:06:59.283Z,220.00
2019-04-05T05:07:59.266Z,212.00
2019-04-05T05:08:59.259Z,216.00
2019-04-05T05:09:59.244Z,216.00
2019-04-05T05:10:59.244Z,204.00
2019-04-05T05:11:59.233Z,200.00
2019-04-05T05:12:59.213Z,212.00
2019-04-05T05:13:59.199Z,204.00
2019-04-05T05:14:59.196Z,200.00
2019-04-05T05:15:59.180Z,196.00
2019-04-05T05:16:59.216Z,204.00
2019-04-05T05:17:59.280Z,204.00
2019-04-05T05:18:59.155Z,208.00
2019-04-05T05:19:59.136Z,200.00
2019-04-05T05:20:59.132Z,200.00
2019-04-05T05:21:59.119Z,200.00
2019-04-05T05:22:59.122Z,204.00
2019-04-05T05:23:59.092Z,204.00
2019-04-05T05:24:59.081Z,208.00
2019-04-05T05:25:59.075Z,208.00
2019-04-05T05:26:59.067Z,204.00
2019-04-05T05:27:59.053Z,208.00
2019-04-05T05:28:59.053Z,208.00
2019-04-05T05:29:59.029Z,208.00
2019-04-05T05:31:10.491Z,192.00
2019-04-05T05:31:59.008Z,192.00
2019-04-05T05:32:59.000Z,204.00
2019-04-05T05:33:59.030Z,196.00
2019-04-05T05:35:02.233Z,184.00
2019-04-05T05:35:58.967Z,180.00
2019-04-05T05:36:58.956Z,184.00
2019-04-05T05:37:58.945Z,188.00
2019-04-05T05:38:58.981Z,192.00
2019-04-05T05:39:58.934Z,192.00
2019-04-05T05:40:58.912Z,192.00
2019-04-05T05:41:58.899Z,196.00
2019-04-05T05:42:58.942Z,196.00
2019-04-05T05:43:58.880Z,196.00
2019-04-05T05:44:58.873Z,184.00
2019-04-05T05:45:58.857Z,184.00
2019-04-05T05:46:58.860Z,184.00
2019-04-05T05:47:58.836Z,192.00
2019-04-05T05:48:58.823Z,196.00
2019-04-05T05:49:58.811Z,196.00
2019-04-05T05:50:58.811Z,188.00
2019-04-05T05:51:58.792Z,196.00
2019-04-05T05:52:58.791Z,196.00
2019-04-05T05:53:58.765Z,196.00
2019-04-05T05:54:58.751Z,196.00
2019-04-05T05:55:58.742Z,200.00
2019-04-05T05:56:58.732Z,200.00
2019-04-05T05:57:58.897Z,192.00
2019-04-05T05:58:59.639Z,196.00
2019-04-05T06:00:00.486Z,196.00
2019-04-05T06:00:58.694Z,204.00
2019-04-05T06:02:08.627Z,204.00
2019-04-05T06:02:58.673Z,204.00
2019-04-05T06:03:58.670Z,200.00
2019-04-05T06:04:58.648Z,200.00
2019-04-05T06:06:04.676Z,200.00
2019-04-05T06:06:59.624Z,196.00
2019-04-05T06:08:00.833Z,196.00
2019-04-05T06:08:58.614Z,200.00
2019-04-05T06:09:58.611Z,192.00
2019-04-05T06:10:58.584Z,200.00
2019-04-05T06:11:58.574Z,200.00
2019-04-05T06:12:58.869Z,188.00
2019-04-05T06:13:58.552Z,200.00
2019-04-05T06:14:58.543Z,196.00
2019-04-05T06:15:58.564Z,196.00
2019-04-05T06:16:58.523Z,192.00
2019-04-05T06:18:04.611Z,204.00
2019-04-05T06:18:59.505Z,208.00
2019-04-05T06:19:58.485Z,204.00
2019-04-05T06:20:58.545Z,204.00
2019-04-05T06:21:58.474Z,204.00
2019-04-05T06:22:58.452Z,196.00
2019-04-05T06:23:58.441Z,204.00
2019-04-05T06:24:58.427Z,204.00
2019-04-05T06:25:58.418Z,204.00
2019-04-05T06:26:58.443Z,204.00
2019-04-05T06:28:59.387Z,204.00
2019-04-05T06:29:58.378Z,216.00
2019-04-05T06:30:58.370Z,228.00
2019-04-05T06:31:58.360Z,228.00
2019-04-05T06:33:10.182Z,232.00
2019-04-05T06:33:58.332Z,228.00
2019-04-05T06:34:58.326Z,228.00
2019-04-05T06:35:39.483Z,204.00
2019-04-05T06:35:58.315Z,228.00
2019-04-05T06:36:58.299Z,232.00
2019-04-05T06:37:58.286Z,232.00
2019-04-05T06:38:58.286Z,232.00
2019-04-05T06:39:58.269Z,232.00
2019-04-05T06:40:58.263Z,232.00
2019-04-05T06:41:58.245Z,232.00
2019-04-05T06:42:58.278Z,232.00
2019-04-05T06:43:58.222Z,232.00
2019-04-05T06:44:58.220Z,228.00
2019-04-05T06:45:58.286Z,236.00
2019-04-05T06:46:58.191Z,236.00
2019-04-05T06:47:58.180Z,232.00
2019-04-05T06:48:58.188Z,236.00
2019-04-05T06:49:58.165Z,232.00
2019-04-05T06:50:58.149Z,236.00
2019-04-05T06:51:58.142Z,240.00
2019-04-05T06:52:58.126Z,236.00
2019-04-05T06:53:58.120Z,236.00
2019-04-05T06:54:58.146Z,240.00
2019-04-05T06:55:59.801Z,240.00
2019-04-05T06:56:58.085Z,240.00
2019-04-05T06:57:58.077Z,240.00
2019-04-05T06:58:58.067Z,240.00
2019-04-05T06:59:58.060Z,240.00
2019-04-05T07:00:58.090Z,244.00
2019-04-05T07:01:58.036Z,244.00
2019-04-05T07:02:58.020Z,244.00
2019-04-05T07:04:09.203Z,244.00
2019-04-05T07:04:57.995Z,248.00
2019-04-05T07:05:57.988Z,228.00
2019-04-05T07:06:57.981Z,228.00
2019-04-05T07:07:58.673Z,236.00
2019-04-05T07:08:57.953Z,240.00
2019-04-05T07:09:57.943Z,248.00
2019-04-05T07:10:57.927Z,244.00
2019-04-05T07:11:57.944Z,236.00
2019-04-05T07:12:57.962Z,232.00
2019-04-05T07:13:57.898Z,240.00
2019-04-05T07:14:57.887Z,248.00
2019-04-05T07:15:57.877Z,248.00
2019-04-05T07:16:57.871Z,244.00
2019-04-05T07:17:57.865Z,240.00
2019-04-05T07:18:57.843Z,240.00
2019-04-05T07:19:57.832Z,244.00
2019-04-05T07:20:58.115Z,248.00
2019-04-05T07:21:57.822Z,252.00
2019-04-05T07:22:57.840Z,252.00
2019-04-05T07:23:57.789Z,240.00
2019-04-05T07:24:57.781Z,244.00
2019-04-05T07:25:57.776Z,244.00
2019-04-05T07:26:57.755Z,248.00
2019-04-05T07:27:57.748Z,248.00
2019-04-05T07:28:57.780Z,252.00
2019-04-05T07:29:57.721Z,252.00
2019-04-05T07:30:57.719Z,256.00
2019-04-05T07:31:57.703Z,244.00
2019-04-05T07:32:57.691Z,232.00
2019-04-05T07:33:57.681Z,256.00
2019-04-05T07:35:08.218Z,256.00
2019-04-05T07:35:57.655Z,260.00
2019-04-05T07:36:57.668Z,256.00
2019-04-05T07:37:57.635Z,260.00
2019-04-05T07:38:57.620Z,268.00
2019-04-05T07:39:57.654Z,240.00
2019-04-05T07:40:57.605Z,244.00
2019-04-05T07:41:57.588Z,244.00
2019-04-05T07:42:57.615Z,240.00
2019-04-05T07:43:57.566Z,244.00
2019-04-05T07:44:57.551Z,240.00
2019-04-05T07:45:57.552Z,232.00
2019-04-05T07:46:57.528Z,256.00
2019-04-05T07:47:57.527Z,252.00
2019-04-05T07:48:57.506Z,260.00
2019-04-05T07:49:57.495Z,256.00
2019-04-05T07:50:57.523Z,256.00
2019-04-05T07:51:57.479Z,260.00
2019-04-05T07:52:57.464Z,260.00
2019-04-05T07:53:57.458Z,264.00
2019-04-05T07:54:57.445Z,264.00
2019-04-05T07:55:57.435Z,264.00
2019-04-05T07:56:57.461Z,268.00
2019-04-05T07:57:57.410Z,268.00
2019-04-05T07:58:57.397Z,268.00
2019-04-05T07:59:57.388Z,272.00
2019-04-05T08:00:57.382Z,272.00
2019-04-05T08:01:57.370Z,268.00
2019-04-05T08:02:57.367Z,272.00
2019-04-05T08:03:58.225Z,272.00
2019-04-05T08:04:57.330Z,276.00
2019-04-05T08:06:07.431Z,276.00
2019-04-05T08:06:57.320Z,276.00
2019-04-05T08:07:57.338Z,280.00
2019-04-05T08:08:57.286Z,280.00
2019-04-05T08:09:57.276Z,280.00
2019-04-05T08:10:57.270Z,284.00
2019-04-05T08:11:57.259Z,284.00
2019-04-05T08:12:57.244Z,284.00
2019-04-05T08:13:57.251Z,284.00
2019-04-05T08:14:57.222Z,292.00
2019-04-05T08:15:57.215Z,292.00
2019-04-05T08:16:57.201Z,280.00
2019-04-05T08:17:57.191Z,276.00
2019-04-05T08:18:58.401Z,280.00
2019-04-05T08:19:57.190Z,292.00
2019-04-05T08:20:57.159Z,284.00
2019-04-05T08:21:57.145Z,284.00
2019-04-05T08:22:57.139Z,284.00
2019-04-05T08:23:57.119Z,280.00
2019-04-05T08:24:57.115Z,288.00
2019-04-05T08:25:57.136Z,288.00
2019-04-05T08:26:57.085Z,292.00
2019-04-05T08:27:57.073Z,296.00
2019-04-05T08:28:57.062Z,296.00
2019-04-05T08:29:57.057Z,300.00
2019-04-05T08:30:57.038Z,300.00
2019-04-05T08:31:57.138Z,304.00
2019-04-05T08:32:57.016Z,304.00
2019-04-05T08:33:57.006Z,304.00
2019-04-05T08:34:57.002Z,300.00
2019-04-05T08:35:56.987Z,308.00
2019-04-05T08:37:07.903Z,308.00
2019-04-05T08:37:56.965Z,308.00
2019-04-05T08:38:56.950Z,308.00
2019-04-05T08:39:56.943Z,312.00
2019-04-05T08:40:56.940Z,316.00
2019-04-05T08:41:56.919Z,312.00
2019-04-05T08:42:56.951Z,300.00
2019-04-05T08:43:56.899Z,312.00
2019-04-05T08:44:56.886Z,300.00
2019-04-05T08:45:56.876Z,304.00
2019-04-05T08:46:56.865Z,304.00
2019-04-05T08:47:56.854Z,308.00
2019-04-05T08:49:09.767Z,308.00
2019-04-05T08:49:57.831Z,304.00
2019-04-05T08:50:56.813Z,304.00
2019-04-05T08:51:56.806Z,308.00
2019-04-05T08:52:56.792Z,296.00
2019-04-05T08:53:56.807Z,288.00
2019-04-05T08:54:56.780Z,296.00
2019-04-05T08:55:56.762Z,288.00
2019-04-05T08:56:56.748Z,296.00
2019-04-05T08:57:56.736Z,304.00
2019-04-05T08:58:56.730Z,288.00
2019-04-05T08:59:56.727Z,300.00
2019-04-05T09:00:56.716Z,300.00
2019-04-05T09:01:56.699Z,308.00
2019-04-05T09:02:57.937Z,308.00
2019-04-05T09:03:56.685Z,304.00
2019-04-05T09:04:56.667Z,312.00
2019-04-05T09:05:56.692Z,312.00
2019-04-05T09:06:56.646Z,312.00
2019-04-05T09:08:06.768Z,312.00
2019-04-05T09:08:56.619Z,312.00
2019-04-05T09:09:56.612Z,308.00
2019-04-05T09:10:56.601Z,308.00
2019-04-05T09:11:56.626Z,308.00
2019-04-05T09:12:56.581Z,312.00
2019-04-05T09:13:56.562Z,312.00
2019-04-05T09:14:56.555Z,312.00
2019-04-05T09:15:56.545Z,312.00
2019-04-05T09:16:56.531Z,312.00
2019-04-05T09:17:56.566Z,304.00
2019-04-05T09:18:56.511Z,296.00
2019-04-05T09:19:56.497Z,264.00
2019-04-05T09:20:56.496Z,276.00
2019-04-05T09:21:56.479Z,280.00
2019-04-05T09:22:56.467Z,272.00
2019-04-05T09:23:59.097Z,240.00
2019-04-05T09:24:56.442Z,240.00
2019-04-05T09:25:56.435Z,228.00
2019-04-05T09:26:56.424Z,232.00
2019-04-05T09:27:56.413Z,232.00
2019-04-05T09:28:56.401Z,232.00
2019-04-05T09:29:56.412Z,232.00
2019-04-05T09:30:56.387Z,240.00
2019-04-05T09:31:56.368Z,240.00
2019-04-05T09:32:56.363Z,248.00
2019-04-05T09:33:56.347Z,248.00
2019-04-05T09:34:56.340Z,240.00
2019-04-05T09:35:56.385Z,248.00
2019-04-05T09:36:56.320Z,248.00
2019-04-05T09:37:56.307Z,244.00
2019-04-05T09:39:07.423Z,244.00
2019-04-05T09:39:56.280Z,244.00
2019-04-05T09:40:56.277Z,244.00
2019-04-05T09:41:56.259Z,240.00
2019-04-05T09:42:56.325Z,236.00
2019-04-05T09:43:56.240Z,248.00
2019-04-05T09:44:56.266Z,248.00
2019-04-05T09:45:56.214Z,256.00
2019-04-05T09:46:56.202Z,252.00
2019-04-05T09:47:56.198Z,248.00
2019-04-05T09:48:56.184Z,232.00
2019-04-05T09:49:56.173Z,232.00
2019-04-05T09:50:56.201Z,224.00
2019-04-05T09:51:56.155Z,244.00
2019-04-05T09:52:56.154Z,252.00
2019-04-05T09:53:56.131Z,244.00
2019-04-05T09:54:56.122Z,232.00
2019-04-05T09:55:56.112Z,252.00
2019-04-05T09:56:56.889Z,240.00
2019-04-05T09:57:56.087Z,244.00
2019-04-05T09:58:56.079Z,244.00
2019-04-05T09:59:56.107Z,240.00
2019-04-05T10:00:56.050Z,240.00
2019-04-05T10:01:56.040Z,256.00
2019-04-05T10:02:56.068Z,252.00
2019-04-05T10:03:56.019Z,252.00
2019-04-05T10:04:56.006Z,256.00
2019-04-05T10:05:56.000Z,240.00
2019-04-05T10:06:55.991Z,256.00
2019-04-05T10:07:56.068Z,252.00
2019-04-05T10:08:55.969Z,252.00
2019-04-05T10:10:07.407Z,248.00
2019-04-05T10:10:55.942Z,248.00
2019-04-05T10:11:55.935Z,244.00
2019-04-05T10:12:55.923Z,244.00
2019-04-05T10:13:55.955Z,248.00
2019-04-05T10:14:55.903Z,252.00
2019-04-05T10:15:55.894Z,240.00
2019-04-05T10:16:55.881Z,252.00
2019-04-05T10:17:55.871Z,252.00
2019-04-05T10:18:55.858Z,252.00
2019-04-05T10:19:55.879Z,244.00
2019-04-05T10:20:55.834Z,240.00
2019-04-05T10:21:55.826Z,244.00
2019-04-05T10:22:55.813Z,240.00
2019-04-05T10:23:55.805Z,244.00
2019-04-05T10:24:55.792Z,240.00
2019-04-05T10:25:55.823Z,244.00
2019-04-05T10:26:55.766Z,244.00
2019-04-05T10:27:55.758Z,244.00
2019-04-05T10:28:55.744Z,244.00
2019-04-05T10:29:55.733Z,244.00
2019-04-05T10:30:55.721Z,244.00
2019-04-05T10:31:55.754Z,236.00
2019-04-05T10:32:55.701Z,236.00
2019-04-05T10:33:55.692Z,240.00
2019-04-05T10:34:55.683Z,244.00
2019-04-05T10:35:55.674Z,244.00
2019-04-05T10:36:55.678Z,256.00
2019-04-05T10:37:58.181Z,252.00
2019-04-05T10:38:55.640Z,248.00
2019-04-05T10:39:55.690Z,236.00
2019-04-05T10:41:06.309Z,248.00
2019-04-05T10:42:03.346Z,256.00
2019-04-05T10:43:19.968Z,252.00
2019-04-05T10:43:58.334Z,252.00
2019-04-05T10:44:55.565Z,252.00
2019-04-05T10:45:55.554Z,252.00
2019-04-05T10:46:55.543Z,256.00
2019-04-05T10:47:55.535Z,256.00
2019-04-05T10:48:55.566Z,256.00
2019-04-05T10:50:02.949Z,252.00
2019-04-05T10:50:56.504Z,252.00
2019-04-05T10:51:55.488Z,260.00
2019-04-05T10:52:55.477Z,252.00
2019-04-05T10:53:55.466Z,248.00
2019-04-05T10:54:57.826Z,252.00
2019-04-05T10:55:55.448Z,244.00
2019-04-05T10:56:55.431Z,236.00
2019-04-05T10:57:55.427Z,240.00
2019-04-05T10:58:55.414Z,244.00
2019-04-05T10:59:55.399Z,244.00
2019-04-05T11:00:55.426Z,244.00
2019-04-05T11:01:55.383Z,240.00
2019-04-05T11:02:55.365Z,248.00
2019-04-05T11:03:55.360Z,244.00
2019-04-05T11:04:55.344Z,244.00
2019-04-05T11:05:55.335Z,236.00
2019-04-05T11:06:55.326Z,244.00
2019-04-05T11:07:55.313Z,236.00
2019-04-05T11:08:55.296Z,244.00
2019-04-05T11:09:55.290Z,260.00
2019-04-05T11:10:55.278Z,256.00
2019-04-05T11:12:08.468Z,256.00
2019-04-05T11:12:55.253Z,256.00
2019-04-05T11:13:55.240Z,252.00
2019-04-05T11:14:55.231Z,284.00
2019-04-05T11:15:55.221Z,284.00
2019-04-05T11:16:58.705Z,284.00
2019-04-05T11:17:55.204Z,284.00
2019-04-05T11:18:55.186Z,100.00
2019-04-05T11:19:55.173Z,96.00
2019-04-05T11:20:55.163Z,96.00
2019-04-05T11:21:55.152Z,100.00
2019-04-05T11:22:55.184Z,100.00
2019-04-05T11:23:55.648Z,100.00
2019-04-05T11:24:55.122Z,100.00
2019-04-05T11:25:55.106Z,100.00
2019-04-05T11:26:55.095Z,100.00
2019-04-05T11:27:55.091Z,100.00
2019-04-05T11:28:55.114Z,100.00
2019-04-05T11:29:57.668Z,100.00
2019-04-05T11:30:55.112Z,100.00
2019-04-05T11:31:57.345Z,100.00
2019-04-05T11:32:55.028Z,100.00
2019-04-05T11:33:55.015Z,100.00
2019-04-05T11:34:55.027Z,100.00
2019-04-05T11:35:57.766Z,100.00
2019-04-05T11:36:54.984Z,100.00
2019-04-05T11:37:54.975Z,100.00
2019-04-05T11:38:54.959Z,96.00
2019-04-05T11:39:54.953Z,96.00
2019-04-05T11:40:55.098Z,96.00
2019-04-05T11:41:54.924Z,96.00
2019-04-05T11:43:05.034Z,96.00
2019-04-05T11:43:54.965Z,96.00
2019-04-05T11:44:54.895Z,96.00
2019-04-05T11:45:54.886Z,96.00
2019-04-05T11:46:54.878Z,96.00
2019-04-05T11:47:55.688Z,100.00
2019-04-05T11:48:54.850Z,96.00
2019-04-05T11:49:55.180Z,92.00
2019-04-05T11:50:54.826Z,96.00
2019-04-05T11:51:54.823Z,96.00
2019-04-05T11:52:54.814Z,96.00
2019-04-05T11:53:54.795Z,96.00
2019-04-05T11:54:54.779Z,96.00
2019-04-05T11:55:54.770Z,96.00
2019-04-05T11:56:54.763Z,96.00
2019-04-05T11:57:55.052Z,96.00
2019-04-05T11:58:54.740Z,96.00
2019-04-05T11:59:54.722Z,96.00
2019-04-05T12:00:54.711Z,96.00
2019-04-05T12:01:54.708Z,96.00
2019-04-05T12:02:54.689Z,92.00
2019-04-05T12:03:54.786Z,92.00
2019-04-05T12:04:54.669Z,92.00
2019-04-05T12:05:54.657Z,92.00
2019-04-05T12:06:54.645Z,92.00
2019-04-05T12:07:58.610Z,92.00
2019-04-05T12:08:55.664Z,92.00
2019-04-05T12:09:54.614Z,96.00
2019-04-05T12:10:54.603Z,96.00
2019-04-05T12:11:54.594Z,92.00
2019-04-05T12:12:54.580Z,92.00
2019-04-05T12:14:05.640Z,92.00
2019-04-05T12:14:54.552Z,92.00
2019-04-05T12:15:54.549Z,92.00
2019-04-05T12:16:54.536Z,92.00
2019-04-05T12:17:54.523Z,92.00
2019-04-05T12:18:54.508Z,92.00
2019-04-05T12:19:54.508Z,88.00
2019-04-05T12:21:00.092Z,88.00
2019-04-05T12:21:55.489Z,88.00
2019-04-05T12:22:54.469Z,92.00
2019-04-05T12:23:54.458Z,92.00
2019-04-05T12:24:54.450Z,92.00
2019-04-05T12:25:54.836Z,92.00
2019-04-05T12:26:54.442Z,92.00
2019-04-05T12:28:05.815Z,88.00
2019-04-05T12:28:55.399Z,88.00
2019-04-05T12:29:54.391Z,88.00
2019-04-05T12:30:54.376Z,88.00
2019-04-05T12:31:54.363Z,88.00
2019-04-05T12:32:54.361Z,88.00
2019-04-05T12:33:54.381Z,88.00
2019-04-05T12:34:54.338Z,92.00
2019-04-05T12:35:56.616Z,88.00
2019-04-05T12:36:54.309Z,88.00
2019-04-05T12:37:55.792Z,88.00
2019-04-05T12:38:54.472Z,88.00
2019-04-05T12:39:54.280Z,88.00
2019-04-05T12:40:54.309Z,88.00
2019-04-05T12:41:54.255Z,88.00
2019-04-05T12:42:54.249Z,84.00
2019-04-05T12:43:54.275Z,84.00
2019-04-05T12:45:04.313Z,88.00
2019-04-05T12:45:54.214Z,88.00